Latest Coastal Weather Observations for Brisbane Airport

IDQ60701

Issued at 4:12 pm EST Friday 24 March 2017 (issued every 10 minutes, with the page automatically refreshed every 10 minutes)

About coastal observations | Map of coastal stations | Coastal observations for QLD | Marine services | Other Formats
Station Details ID: 040842 Name: BRISBANE AERO Lat: -27.39 Lon: 153.13 Height: 4.51 m
Data from the previous 72 hours. | See also: Recent months at Brisbane Airport
Date/Time
EST
Temp
°C
Wind Pressure Rain since
9am
mm
Weather Cloud Vis
km
Sea
Height
m
Swell
Dir  Spd
kts
Gust
kts
hPa Trend Height
m
Period
s
Dir
24/04:00pm 24.4 SE 6 11 1013.5 - 4.6 - Mostly clear 10 - - - -
24/03:45pm 24.4 SE 6 9 1013.6 - 4.4 Showers Mostly clear 10 - - - -
24/03:30pm 24.5 NE 6 8 1013.5 - 4.2 Showers Mostly clear 6 - - - -
24/03:00pm 24.5 E 8 15 1013.4 F 2.6 Showers Mostly cloudy 5 - - - -
24/02:51pm 25.8 ENE 10 15 1013.3 - 0.6 Showers Mostly clear 10 - - - -
24/02:30pm 27.1 ENE 11 16 1013.2 - 0.6 Showers Mostly clear 10 - - - -
24/02:00pm 28.0 ENE 10 14 1013.4 - 0.6 - Mostly clear 10 - - - -
24/01:30pm 28.3 ENE 10 14 1013.6 - 0.6 - Mostly clear 10 - - - -
24/01:00pm 27.8 E 9 14 1014.0 - 0.6 - Mostly clear 10 - - - -
24/12:30pm 27.2 E 8 13 1014.5 - 0.6 - Partly cloudy 10 - - - -
24/12:00pm 26.8 E 8 11 1015.1 F 0.6 Distant precip. Mostly cloudy 30 - - - -
24/11:30am 26.9 E 8 12 1015.3 - 0.6 - Partly cloudy 10 - - - -
24/11:00am 26.8 ESE 7 11 1015.8 - 0.6 - Mostly clear 10 - - - -
24/10:30am 26.3 ESE 6 9 1015.9 - 0.6 - Partly cloudy 10 - - - -
24/10:00am 25.2 SE 6 9 1016.2 - 0.6 - Partly cloudy 10 - - - -
24/09:30am 25.2 SE 6 10 1016.3 - 0.2 Showers Partly cloudy 10 - - - -
24/09:00am 25.8 SE 5 8 1016.3 R 3.4 Fine Mostly cloudy 30 - - - -
24/08:30am 25.4 SSE 3 4 1015.8 - 3.4 - Mostly clear 10 - - - -
24/08:00am 24.2 S 5 8 1016.0 - 3.4 - Mostly clear 10 - - - -
24/07:30am 23.4 SSW 5 7 1015.8 - 3.4 - Mostly clear 10 - - - -
24/07:00am 22.7 SSW 5 7 1015.4 - 3.4 - Mostly clear 10 - - - -
24/06:30am 22.2 SSW 5 6 1014.9 - 3.4 - Partly cloudy 10 - - - -
24/06:00am 22.1 SSW 5 6 1014.7 S 3.4 Distant precip. Partly cloudy 30 - - - -
24/05:30am 21.9 SSW 6 7 1014.4 - 3.4 - Mostly clear 10 - - - -
24/05:00am 22.1 SSW 6 8 1014.0 - 3.4 - Mostly clear 10 - - - -
24/04:30am 22.1 SSW 7 8 1014.0 - 3.2 - Mostly clear 10 - - - -
24/04:00am 22.2 SSW 5 6 1013.7 - 3.2 - Mostly clear 10 - - - -
24/03:30am 22.5 SSW 7 8 1013.7 - 3.2 - Mostly clear 10 - - - -
24/03:00am 22.8 SSW 5 8 1013.8 F 3.2 Distant precip. Partly cloudy 30 - - - -
24/02:30am 23.0 S 5 7 1014.3 - 3.2 - Mostly clear 10 - - - -
24/02:00am 23.0 S 3 5 1014.5 - 3.2 - Mostly clear 10 - - - -
24/01:30am 23.0 WNW 3 4 1014.7 - 3.2 - Mostly clear 10 - - - -
24/01:00am 23.4 WNW 7 9 1015.0 - 3.0 - Mostly clear 10 - - - -
24/12:43am 23.5 WNW 7 9 1015.2 - 2.8 Showers Mostly clear 9 - - - -
24/12:30am 23.7 WNW 3 9 1015.1 - 2.2 Showers Partly cloudy 6 - - - -
24/12:07am 24.8 CALM 0 0 1015.1 - 0.0 Showers Mostly clear 5 - - - -
24/12:00am 25.3 CALM 0 3 1015.1 F 0.0 Showers Mostly cloudy 15 - - - -
 
Date/Time
EST
Temp
°C
Wind Pressure Rain since
9am
mm
Weather Cloud Vis
km
Sea
Height
m
Swell
Dir  Spd
kts
Gust
kts
hPa Trend Height
m
Period
s
Dir
23/11:30pm 25.1 E 4 5 1015.3 - 0.0 Showers Mostly clear 10 - - - -
23/11:00pm 25.2 ENE 4 5 1015.6 - 0.0 - Partly cloudy 10 - - - -
23/10:30pm 25.3 NE 5 6 1015.7 - 0.0 Showers Mostly clear 10 - - - -
23/10:00pm 25.5 ENE 3 5 1016.1 - 0.0 - Mostly clear 10 - - - -
23/09:30pm 25.5 NE 6 8 1015.9 - 0.0 - Mostly clear 10 - - - -
23/09:00pm 25.4 NE 6 7 1015.9 F 0.0 Fine Mostly cloudy 30 - - - -
23/08:30pm 25.7 NE 7 9 1016.0 - 0.0 - Mostly clear 10 - - - -
23/08:00pm 25.8 ENE 6 9 1015.8 - 0.0 - Mostly clear 10 - - - -
23/07:30pm 25.7 ENE 7 9 1015.6 - 0.0 - Mostly clear 10 - - - -
23/07:00pm 25.8 ENE 7 9 1015.3 - 0.0 - Mostly clear 10 - - - -
23/06:30pm 25.9 ENE 7 8 1014.9 - 0.0 - Mostly clear 10 - - - -
23/06:00pm 26.0 ENE 6 8 1014.7 S 0.0 Fine Mostly cloudy 30 - - - -
23/05:30pm 26.1 NE 7 9 1014.6 - 0.0 - Mostly clear 10 - - - -
23/05:00pm 26.4 NE 8 10 1014.3 - 0.0 - Mostly clear 10 - - - -
23/04:30pm 26.5 NNE 10 13 1014.2 - 0.0 - Mostly clear 10 - - - -
23/04:00pm 26.5 NNE 9 14 1014.0 - 0.0 - Mostly clear 10 - - - -
23/03:30pm 27.0 NE 8 11 1013.9 - 0.0 - Mostly clear 10 - - - -
23/03:00pm 27.0 NNE 7 8 1013.9 F 0.0 Fine Mostly cloudy 30 - - - -
23/02:30pm 26.9 NNE 7 8 1013.9 - 0.0 - Mostly clear 10 - - - -
23/02:00pm 26.8 NNE 7 8 1014.0 - 0.0 - Mostly clear 10 - - - -
23/01:30pm 27.0 NNE 7 9 1014.2 - 0.0 - Mostly clear 10 - - - -
23/01:00pm 27.1 N 7 9 1014.8 - 0.0 - Mostly clear 10 - - - -
23/12:30pm 27.5 N 7 10 1015.3 - 0.0 - Mostly clear 10 - - - -
23/12:00pm 27.7 N 7 10 1015.6 R 0.0 Fine Mostly cloudy 30 - - - -
23/11:30am 27.0 N 8 14 1016.0 - 0.0 - Mostly clear 10 - - - -
23/11:00am 26.6 N 8 10 1016.2 - 0.0 - Mostly clear 10 - - - -
23/10:30am 26.0 N 7 13 1016.4 - 0.0 - Mostly clear 10 - - - -
23/10:00am 25.8 N 7 12 1016.5 - 0.0 - Mostly clear 10 - - - -
23/09:30am 25.9 N 6 11 1016.5 - 0.0 - Mostly clear 10 - - - -
23/09:00am 25.9 N 5 6 1016.5 R 3.4 Recent precip. Cloudy 20 - - - -
23/08:30am 25.2 CALM 0 0 1016.3 - 3.4 Rain Mostly clear 10 - - - -
23/08:00am 24.6 WSW 3 4 1016.0 - 3.4 - Mostly clear 10 - - - -
23/07:30am 24.0 CALM 0 0 1015.5 - 3.4 - Mostly clear 10 - - - -
23/07:00am 23.2 CALM 0 0 1015.3 - 3.4 - Mostly clear 10 - - - -
23/06:30am 22.8 S 1 4 1015.2 - 3.4 - Mostly clear 10 - - - -
23/06:00am 22.8 SSW 5 6 1014.9 R 3.4 Fine Cloudy 20 - - - -
23/05:30am 22.7 SSW 5 6 1014.8 - 3.4 - Mostly clear 10 - - - -
23/05:00am 22.8 SSW 5 6 1014.5 - 3.4 - Mostly clear 10 - - - -
23/04:30am 22.7 SSW 5 6 1014.3 - 3.4 - Mostly clear 10 - - - -
23/04:00am 22.8 SW 5 6 1014.0 - 3.4 - Mostly clear 10 - - - -
23/03:30am 22.9 S 4 6 1013.8 - 3.2 Rain Mostly clear 10 - - - -
23/03:00am 23.0 SSW 6 8 1013.9 F 3.2 Rain Cloudy 25 - - - -
23/02:30am 23.0 SSW 7 8 1014.1 - 3.2 - Mostly clear 10 - - - -
23/02:00am 23.1 SSW 5 5 1014.2 - 3.2 - Mostly clear 10 - - - -
23/01:30am 23.2 SSW 5 7 1014.3 - 3.2 - Mostly clear 10 - - - -
23/01:00am 23.3 SSW 5 6 1014.7 - 3.2 - Mostly clear 10 - - - -
23/12:30am 23.1 SW 6 6 1015.0 - 3.2 - Mostly clear 10 - - - -
23/12:00am 23.1 SW 4 5 1015.2 R 3.2 Fine Cloudy 25 - - - -
 
Date/Time
EST
Temp
°C
Wind Pressure Rain since
9am
mm
Weather Cloud Vis
km
Sea
Height
m
Swell
Dir  Spd
kts
Gust
kts
hPa Trend Height
m
Period
s
Dir
22/11:30pm 23.4 S 4 5 1015.3 - 3.2 - Mostly clear 10 - - - -
22/11:00pm 23.5 SSW 5 7 1015.4 - 3.2 - - 10 - - - -
22/10:30pm 23.5 S 4 5 1015.5 - 3.2 - - 10 - - - -
22/10:00pm 23.4 S 4 5 1015.7 - 3.2 - Mostly clear 10 - - - -
22/09:30pm 23.5 S 3 4 1015.7 - 3.2 - Mostly clear 10 - - - -
22/09:00pm 23.6 S 4 5 1015.6 F 3.2 Fine Cloudy 30 - - - -
22/08:30pm 23.7 S 4 5 1015.4 - 3.2 - Mostly clear 10 - - - -
22/08:00pm 23.7 SSE 4 4 1015.2 - 3.2 - Mostly clear 10 - - - -
22/07:30pm 23.7 SSE 3 4 1014.8 - 3.2 - Mostly clear 10 - - - -
22/07:00pm 23.8 CALM 0 4 1014.8 - 3.2 - Mostly clear 10 - - - -
22/06:30pm 24.0 CALM 0 0 1014.6 - 3.2 - Mostly clear 10 - - - -
22/06:00pm 23.9 E 2 4 1014.3 F 3.2 Distant precip. Cloudy 25 - - - -
22/05:30pm 24.0 CALM 0 0 1014.1 - 3.2 - Mostly clear 10 - - - -
22/05:00pm 23.8 CALM 0 3 1013.9 - 3.2 - Mostly clear 10 - - - -
22/04:49pm 23.8 ESE 1 3 1013.9 - 3.0 Showers Mostly clear 10 - - - -
22/04:30pm 23.4 ENE 6 9 1014.0 - 2.0 Showers Mostly clear 5 - - - -
22/04:21pm 24.2 ENE 7 10 1014.0 - 1.2 Showers Mostly clear 5 - - - -
22/04:00pm 24.7 WNW 6 10 1013.8 - 1.2 - Mostly clear 10 - - - -
22/03:30pm 25.0 WNW 9 13 1013.9 - 1.0 Showers Partly cloudy 8 - - - -
22/03:00pm 26.4 N 4 6 1013.6 R 1.0 Showers Cloudy 15 - - - -
22/02:30pm 26.6 N 6 7 1013.7 - 1.0 Showers Mostly clear 10 - - - -
22/02:00pm 26.5 N 5 7 1013.9 - 1.0 - Mostly clear 10 - - - -
22/01:30pm 26.3 NE 5 6 1014.1 - 1.0 - Mostly clear 10 - - - -
22/01:00pm 26.2 NNE 7 8 1014.4 - 1.0 - Mostly clear 10 - - - -
22/12:30pm 26.2 NNE 6 8 1014.8 - 1.0 Rain Mostly clear 10 - - - -
22/12:00pm 26.2 NE 4 6 1015.0 F 1.0 Distant precip. Cloudy 20 - - - -
22/11:30am 25.6 NE 4 5 1015.3 - 1.0 Showers Mostly clear 10 - - - -
22/11:00am 24.6 NE 5 8 1015.5 - 1.0 - Mostly clear 9 - - - -
22/10:30am 26.6 NNE 5 7 1015.6 - 0.0 - Mostly clear 10 - - - -
22/10:00am 26.3 N 4 6 1015.8 - 0.0 - Mostly clear 10 - - - -
22/09:30am 26.2 N 5 7 1016.1 - 0.0 - Mostly clear 10 - - - -
22/09:00am 25.4 W 4 14 1016.1 F 9.4 Distant precip. Cloudy 25 - - - -
22/08:30am 23.6 WSW 6 7 1016.2 - 9.4 - Mostly clear 10 - - - -
22/08:00am 24.5 WSW 6 8 1016.1 - 9.4 - Mostly clear 10 - - - -
22/07:30am 23.6 WSW 5 8 1016.0 - 9.4 - Mostly clear 10 - - - -
22/07:00am 23.1 SW 5 6 1015.8 - 9.4 - Mostly clear 10 - - - -
22/06:46am 23.0 WSW 7 9 1015.7 - 9.4 Showers Mostly clear 10 - - - -
22/06:30am 22.9 W 7 11 1015.6 - 9.0 Showers Mostly clear 6 - - - -
22/06:14am 23.9 NW 5 8 1015.4 - 6.8 Showers Mostly clear 3 - - - -
22/06:00am 23.8 WSW 3 5 1015.3 R 6.8 Distant precip. Cloudy 25 - - - -
22/05:30am 24.9 ENE 6 7 1014.9 - 6.8 - Mostly clear 10 - - - -
22/05:00am 25.1 ENE 8 13 1014.7 - 6.8 - Mostly clear 10 - - - -
22/04:30am 24.9 ENE 6 9 1014.4 - 6.8 - Mostly clear 10 - - - -
22/04:00am 24.9 ENE 7 9 1014.4 - 6.8 - Mostly clear 10 - - - -
22/03:30am 24.8 ENE 8 10 1014.4 - 6.8 - Mostly clear 10 - - - -
22/03:00am 24.9 ENE 7 9 1014.3 S 6.8 Distant precip. Mostly cloudy 30 - - - -
22/02:30am 25.0 ENE 7 8 1014.4 - 6.8 - Mostly clear 10 - - - -
22/02:00am 24.9 ENE 5 7 1014.7 - 6.8 - Mostly clear 10 - - - -
22/01:30am 24.9 NE 8 11 1014.8 - 6.8 - Mostly clear 10 - - - -
22/01:00am 25.1 ENE 8 13 1015.0 - 6.8 - Mostly clear 10 - - - -
22/12:30am 25.2 ENE 5 7 1015.3 - 6.8 - Mostly clear 10 - - - -
22/12:00am 25.2 ENE 7 8 1015.4 S 6.8 Distant precip. Mostly cloudy 30 - - - -
 
Date/Time
EST
Temp
°C
Wind Pressure Rain since
9am
mm
Weather Cloud Vis
km
Sea
Height
m
Swell
Dir  Spd
kts
Gust
kts
hPa Trend Height
m
Period
s
Dir
21/11:30pm 25.2 ENE 7 9 1015.6 - 6.8 - Mostly clear 10 - - - -
21/11:00pm 25.4 NE 10 15 1015.7 - 6.8 - Mostly clear 10 - - - -
21/10:30pm 24.8 E 4 5 1015.8 - 6.8 - Mostly clear 10 - - - -
21/10:00pm 24.9 E 4 4 1015.9 - 6.8 - Mostly clear 10 - - - -
21/09:30pm 24.8 ENE 6 8 1016.1 - 6.8 - Mostly clear 10 - - - -
21/09:00pm 24.6 ENE 7 10 1016.1 R 6.8 Distant precip. Mostly cloudy 30 - - - -
21/08:30pm 24.6 E 6 9 1016.0 - 6.8 - Mostly clear 10 - - - -
21/08:00pm 24.0 ESE 4 6 1015.7 - 6.8 - Mostly clear 10 - - - -
21/07:30pm 23.7 ESE 7 11 1015.5 - 3.0 Showers Mostly clear 8 - - - -
21/07:00pm 26.0 ENE 8 10 1015.0 - 2.0 - Mostly clear 10 - - - -
21/06:30pm 26.1 ENE 5 7 1014.7 - 2.0 - Mostly clear 10 - - - -
21/06:00pm 26.1 ENE 6 8 1014.4 F 2.0 Distant precip. Mostly cloudy 25 - - - -
21/05:30pm 26.4 ENE 6 8 1014.4 - 2.0 - Mostly clear 10 - - - -
21/05:00pm 26.8 ENE 6 8 1014.4 - 2.0 - Mostly clear 10 - - - -
21/04:30pm 26.3 ENE 5 6 1014.5 - 2.0 - Mostly clear 10 - - - -

Other Formats:

Comma delimited format used in spreadsheet applications
http://www.bom.gov.au/fwo/IDQ60701/IDQ60701.94578.axf

JavaScript Object Notation format (JSON) in row-major order
http://www.bom.gov.au/fwo/IDQ60701/IDQ60701.94578.json